Central Wisconsin Airport
KCWA : now visible

Airfield :











YOU CAN JOIN US ON...

 
LOGIN :

Register | Disclaimer

   EN    FR    IT 

 









Legend :    VFR   Marginal VFR   IFR   Intensive IFR   Very Intensive IFR
Visi :
Ceiling :
>= 8 km
>= 3000ft
5 to 8 km
1000 to 3000 ft
1500m to 5 km
500 to 1000 ft
800 to 1500m
200 to 500 ft
< 800m
< 200 ft
Symbols :   Thunderstorms  Fog  Heavy snow  Heavy precipitations  Wind > 20 kt







- Airport Elevation : 1277 ft


KCWA - Central Wisconsin

CURRENT METAR :
  • 162147Z 16004KT 10SM SCT140 26/19 A3011

EXPIRED METARs :
  • 162047Z 16006KT 10SM SCT140 26/18 A3012
  • 161947Z 15005KT 10SM SCT140 26/18 A3013

TAF KCWA
Valid from the 16 at 18:00 until the 17 at 18:00 UTC


161720Z 1618/1718 17006KT P6SM SCT250
FM170400 14004KT 4SM BR SCT250
FM170800 16003KT 2SM BR BKN004
TEMPO 1708/1712 3/4SM BR BKN002
FM171500 16006KT P6SM SCT012
No reported NOTAMs for that airfield.



MET'MAP, your aeronautical weather chart ! - Copyright ORBIFLY December 2007 - Disclaimer

ORBIFLY MET'MAP TEAM :

Programming & Development : Alexandra Zaïnal
Concept & Development : Baudouin d'Aumeries
Co-Development & Prog : Marc-Olivier Méhu
Technical & hardware support : Manuel Goepfert

Contact : metmap@orbifly.com




SOURCES & CREDITS :

   NOAA       Earth
Advisory